Time,TemperatureF,DewpointF,PressureIn,WindDirection,WindDirectionDegrees,WindSpeedMPH,WindSpeedGustMPH,Humidity,HourlyPrecipIn,Conditions,Clouds,dailyrainin,SoftwareType,DateUTC
2013-08-23 00:13:00,56.2,49.0,29.88,NW,323,0.0,-999.0,78,-99.99,,,0.00,weatherlink.com 1.10,2013-08-23 07:13:00,
2013-08-23 00:29:00,55.7,49.0,29.88,NW,323,0.0,-999.0,79,-99.99,,,0.00,weatherlink.com 1.10,2013-08-23 07:29:00,
2013-08-23 00:44:00,55.1,49.0,29.88,NW,323,0.0,-999.0,79,-99.99,,,0.00,weatherlink.com 1.10,2013-08-23 07:44:00,
2013-08-23 00:59:00,54.5,49.0,29.88,NW,323,0.0,-999.0,81,-99.99,,,0.00,weatherlink.com 1.10,2013-08-23 07:59:00,
2013-08-23 01:13:00,54.1,49.0,29.89,NW,323,0.0,-999.0,82,-99.99,,,0.00,weatherlink.com 1.10,2013-08-23 08:13:00,
2013-08-23 01:28:00,53.6,48.0,29.88,NW,323,0.0,-999.0,82,-99.99,,,0.00,weatherlink.com 1.10,2013-08-23 08:28:00,
2013-08-23 01:43:00,53.2,49.0,29.88,NW,323,0.0,-999.0,84,-99.99,,,0.00,weatherlink.com 1.10,2013-08-23 08:43:00,
2013-08-23 01:59:00,52.9,48.0,29.88,NW,323,0.0,-999.0,84,-99.99,,,0.00,weatherlink.com 1.10,2013-08-23 08:59:00,
2013-08-23 02:14:00,52.6,48.0,29.88,NW,323,0.0,-999.0,85,-99.99,,,0.00,weatherlink.com 1.10,2013-08-23 09:14:00,
2013-08-23 02:29:00,52.5,48.0,29.88,NW,323,0.0,-999.0,85,-99.99,,,0.00,weatherlink.com 1.10,2013-08-23 09:29:00,
2013-08-23 02:44:00,52.2,48.0,29.88,NW,323,0.0,-999.0,85,-99.99,,,0.00,weatherlink.com 1.10,2013-08-23 09:44:00,
2013-08-23 02:59:00,51.9,48.0,29.88,NW,323,0.0,-999.0,86,-99.99,,,0.00,weatherlink.com 1.10,2013-08-23 09:59:00,
2013-08-23 03:14:00,51.7,48.0,29.88,NW,323,0.0,-999.0,87,-99.99,,,0.00,weatherlink.com 1.10,2013-08-23 10:14:00,
2013-08-23 03:29:00,51.6,48.0,29.88,NW,323,0.0,-999.0,87,-99.99,,,0.00,weatherlink.com 1.10,2013-08-23 10:29:00,
2013-08-23 03:44:00,51.3,48.0,29.88,NW,323,0.0,-999.0,87,-99.99,,,0.00,weatherlink.com 1.10,2013-08-23 10:44:00,
2013-08-23 03:59:00,51.0,47.0,29.87,NW,323,0.0,-999.0,87,-99.99,,,0.00,weatherlink.com 1.10,2013-08-23 10:59:00,
2013-08-23 04:14:00,51.0,48.0,29.87,NW,323,0.0,-999.0,88,-99.99,,,0.00,weatherlink.com 1.10,2013-08-23 11:14:00,
2013-08-23 04:29:00,51.3,48.0,29.87,NW,323,0.0,-999.0,89,-99.99,,,0.00,weatherlink.com 1.10,2013-08-23 11:29:00,
2013-08-23 04:44:00,51.7,49.0,29.87,NW,323,0.0,-999.0,90,-99.99,,,0.00,weatherlink.com 1.10,2013-08-23 11:44:00,
2013-08-23 04:59:00,52.5,50.0,29.87,NW,323,0.0,-999.0,90,-99.99,,,0.00,weatherlink.com 1.10,2013-08-23 11:59:00,
2013-08-23 05:14:00,53.2,51.0,29.86,NW,323,0.0,-999.0,91,-99.99,,,0.00,weatherlink.com 1.10,2013-08-23 12:14:00,
2013-08-23 05:29:00,53.8,51.0,29.86,NW,323,0.0,-999.0,91,-99.99,,,0.00,weatherlink.com 1.10,2013-08-23 12:29:00,
2013-08-23 05:44:00,54.4,52.0,29.86,NW,322,0.0,-999.0,91,-99.99,,,0.00,weatherlink.com 1.10,2013-08-23 12:44:00,
2013-08-23 05:59:00,54.8,52.0,29.86,NW,322,0.0,-999.0,90,-99.99,,,0.00,weatherlink.com 1.10,2013-08-23 12:59:00,
2013-08-23 06:14:00,55.1,52.0,29.86,NW,322,0.0,-999.0,90,-99.99,,,0.00,weatherlink.com 1.10,2013-08-23 13:14:00,
2013-08-23 06:29:00,55.3,52.0,29.86,NW,322,0.0,-999.0,89,-99.99,,,0.00,weatherlink.com 1.10,2013-08-23 13:29:00,
2013-08-23 06:44:00,55.4,52.0,29.87,NW,322,0.0,-999.0,88,-99.99,,,0.00,weatherlink.com 1.10,2013-08-23 13:44:00,
2013-08-23 06:59:00,55.6,52.0,29.87,NW,322,0.0,-999.0,87,-99.99,,,0.00,weatherlink.com 1.10,2013-08-23 13:59:00,
2013-08-23 07:14:00,55.9,52.0,29.88,NW,322,0.0,-999.0,87,-99.99,,,0.00,weatherlink.com 1.10,2013-08-23 14:14:00,
2013-08-23 07:29:00,56.2,52.0,29.88,NW,322,0.0,-999.0,86,-99.99,,,0.00,weatherlink.com 1.10,2013-08-23 14:29:00,
2013-08-23 07:44:00,56.5,52.0,29.88,NW,322,0.0,-999.0,86,-99.99,,,0.00,weatherlink.com 1.10,2013-08-23 14:44:00,
2013-08-23 07:59:00,56.6,52.0,29.88,NW,322,0.0,-999.0,85,-99.99,,,0.00,weatherlink.com 1.10,2013-08-23 14:59:00,
2013-08-23 08:14:00,57.0,53.0,29.88,NW,322,0.0,-999.0,85,-99.99,,,0.00,weatherlink.com 1.10,2013-08-23 15:14:00,
2013-08-23 08:29:00,57.3,53.0,29.88,NW,322,0.0,-999.0,84,-99.99,,,0.00,weatherlink.com 1.10,2013-08-23 15:29:00,
2013-08-23 08:44:00,58.0,53.0,29.89,NW,322,0.0,-999.0,83,-99.99,,,0.00,weatherlink.com 1.10,2013-08-23 15:44:00,
2013-08-23 08:59:00,58.4,53.0,29.89,NW,322,0.0,-999.0,82,-99.99,,,0.00,weatherlink.com 1.10,2013-08-23 15:59:00,
2013-08-23 09:15:00,58.9,53.0,29.89,NW,322,0.0,-999.0,81,-99.99,,,0.00,weatherlink.com 1.10,2013-08-23 16:15:00,
2013-08-23 09:30:00,59.9,54.0,29.89,NW,322,2.0,-999.0,80,-99.99,,,0.00,weatherlink.com 1.10,2013-08-23 16:30:00,
2013-08-23 09:45:00,62.1,54.0,29.88,ESE,117,0.0,-999.0,75,-99.99,,,0.00,weatherlink.com 1.10,2013-08-23 16:45:00,
2013-08-23 10:00:00,63.7,54.0,29.88,SSE,158,0.0,-999.0,71,-99.99,,,0.00,weatherlink.com 1.10,2013-08-23 17:00:00,
2013-08-23 10:14:00,64.8,54.0,29.88,SSE,155,0.0,-999.0,68,-99.99,,,0.00,weatherlink.com 1.10,2013-08-23 17:14:00,
2013-08-23 10:29:00,66.3,55.0,29.88,SSE,153,0.0,-999.0,67,-99.99,,,0.00,weatherlink.com 1.10,2013-08-23 17:29:00,
2013-08-23 10:45:00,67.8,54.0,29.88,South,184,3.0,-999.0,62,-99.99,,,0.00,weatherlink.com 1.10,2013-08-23 17:45:00,
2013-08-23 11:00:00,68.8,55.0,29.88,South,174,0.0,-999.0,62,-99.99,,,0.00,weatherlink.com 1.10,2013-08-23 18:00:00,
2013-08-23 11:15:00,69.8,55.0,29.87,SE,130,3.0,-999.0,60,-99.99,,,0.00,weatherlink.com 1.10,2013-08-23 18:15:00,
2013-08-23 11:30:00,70.8,56.0,29.87,ESE,111,0.0,-999.0,59,-99.99,,,0.00,weatherlink.com 1.10,2013-08-23 18:30:00,
2013-08-23 11:45:00,71.6,55.0,29.86,SE,142,3.0,-999.0,56,-99.99,,,0.00,weatherlink.com 1.10,2013-08-23 18:45:00,
2013-08-23 12:01:00,72.8,55.0,29.86,SE,134,3.0,-999.0,54,-99.99,,,0.00,weatherlink.com 1.10,2013-08-23 19:01:00,
2013-08-23 12:15:00,73.9,56.0,29.86,SE,146,3.0,-999.0,53,-99.99,,,0.00,weatherlink.com 1.10,2013-08-23 19:15:00,
2013-08-23 12:30:00,75.1,56.0,29.85,SE,133,0.0,-999.0,52,-99.99,,,0.00,weatherlink.com 1.10,2013-08-23 19:30:00,
2013-08-23 12:45:00,76.3,57.0,29.85,SSE,154,3.0,-999.0,51,-99.99,,,0.00,weatherlink.com 1.10,2013-08-23 19:45:00,
2013-08-23 13:01:00,77.4,57.0,29.84,SE,146,0.0,-999.0,49,-99.99,,,0.00,weatherlink.com 1.10,2013-08-23 20:01:00,
2013-08-23 13:15:00,78.5,57.0,29.83,SSE,159,0.0,-999.0,47,-99.99,,,0.00,weatherlink.com 1.10,2013-08-23 20:15:00,
2013-08-23 13:30:00,79.2,57.0,29.83,ESE,122,0.0,-999.0,47,-99.99,,,0.00,weatherlink.com 1.10,2013-08-23 20:30:00,
2013-08-23 13:45:00,80.5,57.0,29.82,SE,136,0.0,-999.0,45,-99.99,,,0.00,weatherlink.com 1.10,2013-08-23 20:45:00,
2013-08-23 14:01:00,81.2,57.0,29.82,East,92,0.0,-999.0,44,-99.99,,,0.00,weatherlink.com 1.10,2013-08-23 21:01:00,
2013-08-23 14:15:00,82.2,57.0,29.81,SE,140,0.0,-999.0,43,-99.99,,,0.00,weatherlink.com 1.10,2013-08-23 21:15:00,
2013-08-23 14:30:00,83.0,58.0,29.80,SSE,157,2.0,-999.0,43,-99.99,,,0.00,weatherlink.com 1.10,2013-08-23 21:30:00,
2013-08-23 14:46:00,83.8,58.0,29.80,SSE,156,1.0,-999.0,41,-99.99,,,0.00,weatherlink.com 1.10,2013-08-23 21:46:00,
2013-08-23 15:01:00,84.5,58.0,29.79,SE,128,4.0,-999.0,40,-99.99,,,0.00,weatherlink.com 1.10,2013-08-23 22:01:00,
2013-08-23 15:15:00,84.5,58.0,29.78,SSE,163,8.0,-999.0,40,-99.99,,,0.00,weatherlink.com 1.10,2013-08-23 22:15:00,
2013-08-23 15:30:00,84.5,58.0,29.78,ESE,110,5.0,-999.0,40,-99.99,,,0.00,weatherlink.com 1.10,2013-08-23 22:30:00,
2013-08-23 15:45:00,84.3,58.0,29.77,SE,126,5.0,-999.0,41,-99.99,,,0.00,weatherlink.com 1.10,2013-08-23 22:45:00,
2013-08-23 16:01:00,85.1,57.0,29.77,SE,140,7.0,-999.0,39,-99.99,,,0.00,weatherlink.com 1.10,2013-08-23 23:01:00,
2013-08-23 16:15:00,85.3,58.0,29.77,East,88,0.0,-999.0,40,-99.99,,,0.00,weatherlink.com 1.10,2013-08-23 23:15:00,
2013-08-23 16:30:00,85.3,58.0,29.76,SE,128,5.0,-999.0,40,-99.99,,,0.00,weatherlink.com 1.10,2013-08-23 23:30:00,
2013-08-23 16:45:00,85.3,58.0,29.75,ESE,107,1.0,-999.0,40,-99.99,,,0.00,weatherlink.com 1.10,2013-08-23 23:45:00,
2013-08-23 17:01:00,84.5,58.0,29.75,SSE,156,0.0,-999.0,41,-99.99,,,0.00,weatherlink.com 1.10,2013-08-24 00:01:00,
2013-08-23 17:15:00,84.1,58.0,29.75,ESE,102,5.0,-999.0,41,-99.99,,,0.00,weatherlink.com 1.10,2013-08-24 00:15:00,
2013-08-23 17:30:00,83.6,59.0,29.75,ESE,117,4.0,-999.0,43,-99.99,,,0.00,weatherlink.com 1.10,2013-08-24 00:30:00,
2013-08-23 17:45:00,82.8,58.0,29.75,SE,136,3.0,-999.0,43,-99.99,,,0.00,weatherlink.com 1.10,2013-08-24 00:45:00,
2013-08-23 18:01:00,81.2,58.0,29.75,East,86,4.0,-999.0,45,-99.99,,,0.00,weatherlink.com 1.10,2013-08-24 01:01:00,
2013-08-23 18:15:00,80.3,58.0,29.74,SSE,167,1.0,-999.0,46,-99.99,,,0.00,weatherlink.com 1.10,2013-08-24 01:15:00,
2013-08-23 18:30:00,80.3,57.0,29.74,East,85,0.0,-999.0,45,-99.99,,,0.00,weatherlink.com 1.10,2013-08-24 01:30:00,
2013-08-23 18:45:00,79.0,58.0,29.74,South,174,6.0,-999.0,48,-99.99,,,0.00,weatherlink.com 1.10,2013-08-24 01:45:00,
2013-08-23 19:00:00,77.7,58.0,29.74,SE,144,0.0,-999.0,50,-99.99,,,0.00,weatherlink.com 1.10,2013-08-24 02:00:00,
2013-08-23 19:15:00,76.0,58.0,29.74,East,98,5.0,-999.0,53,-99.99,,,0.00,weatherlink.com 1.10,2013-08-24 02:15:00,
2013-08-23 19:30:00,74.2,57.0,29.74,SE,127,3.0,-999.0,56,-99.99,,,0.00,weatherlink.com 1.10,2013-08-24 02:30:00,
2013-08-23 19:45:00,72.7,57.0,29.74,East,97,2.0,-999.0,59,-99.99,,,0.00,weatherlink.com 1.10,2013-08-24 02:45:00,
2013-08-23 20:00:00,71.5,57.0,29.75,SE,128,0.0,-999.0,61,-99.99,,,0.00,weatherlink.com 1.10,2013-08-24 03:00:00,
2013-08-23 20:15:00,70.6,57.0,29.75,SE,128,3.0,-999.0,63,-99.99,,,0.00,weatherlink.com 1.10,2013-08-24 03:15:00,
2013-08-23 20:30:00,69.6,57.0,29.76,SE,128,2.0,-999.0,65,-99.99,,,0.00,weatherlink.com 1.10,2013-08-24 03:30:00,
2013-08-23 20:45:00,68.9,57.0,29.77,SE,128,2.0,-999.0,66,-99.99,,,0.00,weatherlink.com 1.10,2013-08-24 03:45:00,
2013-08-23 21:01:00,68.3,57.0,29.77,SE,128,0.0,-999.0,67,-99.99,,,0.00,weatherlink.com 1.10,2013-08-24 04:01:00,
2013-08-23 21:16:00,67.8,56.0,29.78,SE,128,0.0,-999.0,67,-99.99,,,0.00,weatherlink.com 1.10,2013-08-24 04:16:00,
2013-08-23 21:31:00,66.8,56.0,29.78,SE,128,0.0,-999.0,68,-99.99,,,0.00,weatherlink.com 1.10,2013-08-24 04:31:00,
2013-08-23 21:46:00,65.6,56.0,29.78,SE,128,0.0,-999.0,70,-99.99,,,0.00,weatherlink.com 1.10,2013-08-24 04:46:00,
2013-08-23 22:02:00,64.5,55.0,29.79,SE,128,0.0,-999.0,71,-99.99,,,0.00,weatherlink.com 1.10,2013-08-24 05:02:00,
2013-08-23 22:17:00,63.4,55.0,29.78,SE,128,0.0,-999.0,73,-99.99,,,0.00,weatherlink.com 1.10,2013-08-24 05:17:00,
2013-08-23 22:32:00,62.3,54.0,29.79,SE,128,0.0,-999.0,75,-99.99,,,0.00,weatherlink.com 1.10,2013-08-24 05:32:00,
2013-08-23 22:47:00,61.2,54.0,29.78,SE,128,0.0,-999.0,76,-99.99,,,0.00,weatherlink.com 1.10,2013-08-24 05:47:00,
2013-08-23 23:02:00,60.4,54.0,29.78,SE,128,0.0,-999.0,78,-99.99,,,0.00,weatherlink.com 1.10,2013-08-24 06:02:00,
2013-08-23 23:17:00,59.8,54.0,29.78,SE,128,0.0,-999.0,80,-99.99,,,0.00,weatherlink.com 1.10,2013-08-24 06:17:00,
2013-08-23 23:32:00,59.2,53.0,29.78,SE,128,0.0,-999.0,80,-99.99,,,0.00,weatherlink.com 1.10,2013-08-24 06:32:00,
2013-08-23 23:47:00,58.6,53.0,29.78,SE,128,0.0,-999.0,81,-99.99,,,0.00,weatherlink.com 1.10,2013-08-24 06:47:00,